Time;durP1;ratioP1;P1;durP2;ratioP2;P2;SDS_P1;SDS_P2;PMS_P1;PMS_P2;Temp;Humidity;BMP_temperature;BMP_pressure;BME280_temperature;BME280_humidity;BME280_pressure;Samples;Min_cycle;Max_cycle;Signal;HPM_P1;HPM_P2
2022/08/15 00:01:14;;;;;;;6.82;5.88;;;22.70;56.30;;;;;;5055226;28;20386;-71
2022/08/15 00:03:44;;;;;;;6.75;5.88;;;22.70;56.30;;;;;;5055284;28;20100;-76
2022/08/15 00:06:13;;;;;;;9.82;6.90;;;22.70;56.20;;;;;;5055130;28;20040;-74
2022/08/15 00:08:48;;;;;;;8.23;6.13;;;22.70;56.40;;;;;;5055057;28;20397;-70
2022/08/15 00:11:19;;;;;;;8.23;6.50;;;22.70;56.40;;;;;;5037236;28;20079;-74
2022/08/15 00:13:52;;;;;;;10.07;6.28;;;22.70;56.70;;;;;;5055045;28;20025;-72
2022/08/15 00:16:18;;;;;;;6.80;6.10;;;22.60;56.80;;;;;;5053304;28;20024;-72
2022/08/15 00:18:46;;;;;;;6.70;5.88;;;22.70;56.60;;;;;;5054606;28;20033;-75
2022/08/15 00:21:12;;;;;;;8.32;5.85;;;22.60;56.40;;;;;;5054642;28;20099;-76
2022/08/15 00:23:41;;;;;;;7.45;6.10;;;22.60;56.50;;;;;;5041186;28;20064;-73
2022/08/15 00:26:09;;;;;;;9.23;6.15;;;22.60;56.70;;;;;;5034746;28;20111;-74
2022/08/15 00:28:35;;;;;;;7.72;6.30;;;22.60;56.90;;;;;;5034818;28;20028;-74
2022/08/15 00:31:01;;;;;;;9.90;6.72;;;22.70;57.00;;;;;;5034774;28;20009;-77
2022/08/15 00:33:30;;;;;;;8.98;6.00;;;22.60;57.20;;;;;;5035689;28;20034;-69
2022/08/15 00:35:56;;;;;;;9.60;7.22;;;22.60;57.10;;;;;;5034716;28;20009;-75
2022/08/15 00:38:24;;;;;;;7.30;6.40;;;22.50;57.70;;;;;;5034556;28;20513;-72
2022/08/15 00:43:45;;;;;;;8.02;6.03;;;22.50;57.50;;;;;;5015063;28;20092;-71
2022/08/15 00:46:12;;;;;;;7.13;5.82;;;22.50;57.30;;;;;;4997113;28;20076;-74
2022/08/15 00:48:42;;;;;;;6.80;6.10;;;22.50;57.20;;;;;;5014529;28;20030;-69
2022/08/15 00:51:13;;;;;;;7.30;6.20;;;22.40;57.40;;;;;;5014683;28;20334;-75
2022/08/15 00:53:45;;;;;;;6.47;5.68;;;22.40;57.40;;;;;;5013356;28;20064;-73
2022/08/15 00:56:13;;;;;;;8.43;6.38;;;22.40;57.40;;;;;;5014530;28;20084;-72
2022/08/15 00:58:41;;;;;;;6.82;6.13;;;22.30;57.40;;;;;;5014483;28;20026;-71
2022/08/15 01:01:08;;;;;;;9.63;6.55;;;22.30;57.60;;;;;;5014394;28;20030;-72
2022/08/15 01:03:39;;;;;;;8.15;6.28;;;22.30;58.10;;;;;;5014258;28;20502;-70
2022/08/15 01:06:05;;;;;;;7.82;6.30;;;22.20;58.00;;;;;;5012920;28;20030;-73
2022/08/15 01:08:34;;;;;;;7.25;6.05;;;22.20;57.90;;;;;;5014060;28;20026;-70
2022/08/15 01:11:06;;;;;;;7.35;6.05;;;22.20;57.80;;;;;;4996479;28;20468;-71
2022/08/15 01:13:34;;;;;;;7.13;6.30;;;22.20;57.80;;;;;;5033918;28;20028;-77
2022/08/15 01:15:59;;;;;;;6.80;6.03;;;22.10;57.70;;;;;;5033829;28;20068;-72
2022/08/15 01:18:27;;;;;;;7.78;6.30;;;22.10;57.80;;;;;;5033804;28;20057;-72
2022/08/15 01:20:54;;;;;;;7.50;6.53;;;22.10;58.00;;;;;;5033359;28;20042;-68
2022/08/15 01:23:27;;;;;;;7.20;6.05;;;22.10;58.10;;;;;;5033594;28;20025;-74
2022/08/15 01:25:59;;;;;;;7.00;6.30;;;22.10;58.20;;;;;;5033520;28;20026;-75
2022/08/15 01:28:33;;;;;;;7.07;5.85;;;22.00;58.20;;;;;;5033814;28;20025;-72
2022/08/15 01:31:06;;;;;;;8.02;6.75;;;22.00;58.20;;;;;;5033555;28;20025;-74
2022/08/15 01:33:46;;;;;;;11.52;6.30;;;22.00;58.20;;;;;;5033395;28;20028;-72
2022/08/15 01:36:13;;;;;;;7.85;6.00;;;22.00;58.00;;;;;;5033414;28;20037;-76
2022/08/15 01:38:42;;;;;;;8.05;6.85;;;21.90;58.10;;;;;;5033298;28;20059;-73
2022/08/15 01:41:32;;;;;;;7.28;6.38;;;21.90;58.50;;;;;;5033337;28;20013;-71
2022/08/15 01:44:10;;;;;;;6.60;5.90;;;21.90;58.60;;;;;;5013590;28;20168;-74
2022/08/15 01:46:41;;;;;;;8.27;7.00;;;21.90;58.70;;;;;;5013500;28;20033;-72
2022/08/15 01:49:28;;;;;;;7.85;6.72;;;21.90;58.60;;;;;;5013515;28;20079;-71
2022/08/15 01:51:57;;;;;;;8.00;6.63;;;21.80;58.80;;;;;;5013465;28;20022;-74
2022/08/15 01:54:26;;;;;;;7.75;6.13;;;21.80;58.60;;;;;;5013368;28;20356;-74
2022/08/15 01:56:53;;;;;;;9.57;5.95;;;21.80;58.70;;;;;;5013278;28;20479;-72
2022/08/15 01:59:23;;;;;;;7.75;6.40;;;21.80;58.80;;;;;;5013317;28;20026;-69
2022/08/15 02:01:54;;;;;;;13.20;6.97;;;21.70;58.90;;;;;;5013279;28;20022;-75
2022/08/15 02:04:32;;;;;;;8.00;6.03;;;21.70;58.90;;;;;;5013252;28;20030;-76
2022/08/15 02:07:01;;;;;;;8.00;6.53;;;21.70;58.90;;;;;;5011888;28;20025;-71
2022/08/15 02:09:28;;;;;;;7.47;6.43;;;21.60;59.10;;;;;;5013140;28;20429;-74
2022/08/15 02:11:56;;;;;;;9.32;7.22;;;21.60;59.30;;;;;;5018814;28;20524;-74
2022/08/15 02:14:22;;;;;;;10.80;7.47;;;21.60;59.20;;;;;;5015050;28;20497;-72
2022/08/15 02:16:48;;;;;;;7.50;6.70;;;21.50;59.80;;;;;;5032809;28;20479;-73
2022/08/15 02:19:15;;;;;;;8.68;7.07;;;21.50;60.10;;;;;;5032209;28;20044;-73
2022/08/15 02:21:45;;;;;;;6.97;6.25;;;21.50;60.00;;;;;;5032593;28;20053;-75
2022/08/15 02:24:15;;;;;;;7.05;5.97;;;21.50;59.80;;;;;;5032692;28;20032;-73
2022/08/15 02:26:41;;;;;;;7.28;6.47;;;21.50;59.90;;;;;;5032542;28;20492;-71
2022/08/15 02:29:07;;;;;;;9.15;6.55;;;21.50;59.70;;;;;;5032627;28;20101;-69
2022/08/15 02:31:34;;;;;;;6.78;6.07;;;21.50;59.90;;;;;;5032620;28;20009;-69
2022/08/15 02:34:02;;;;;;;9.25;6.90;;;21.50;59.70;;;;;;5032617;28;20493;-72
2022/08/15 02:36:31;;;;;;;9.15;6.55;;;21.50;59.70;;;;;;5032570;28;20379;-74
2022/08/15 02:38:58;;;;;;;7.75;6.68;;;21.50;59.90;;;;;;5032463;28;20037;-70
2022/08/15 02:41:32;;;;;;;7.10;6.40;;;21.50;60.00;;;;;;5032868;28;20109;-73
2022/08/15 02:43:59;;;;;;;9.13;6.93;;;21.40;60.00;;;;;;5034242;28;20036;-75
2022/08/15 02:46:29;;;;;;;7.80;6.60;;;21.40;60.10;;;;;;5052301;28;20368;-74
2022/08/15 02:48:58;;;;;;;6.80;5.75;;;21.40;60.00;;;;;;5052318;28;20027;-69
2022/08/15 02:51:26;;;;;;;8.10;6.03;;;21.40;59.90;;;;;;5052365;28;20017;-73
2022/08/15 02:53:54;;;;;;;8.68;7.13;;;21.30;59.80;;;;;;5052287;28;20021;-69
2022/08/15 02:56:24;;;;;;;8.23;6.38;;;21.30;60.20;;;;;;5052247;28;20020;-74
2022/08/15 02:58:51;;;;;;;7.10;6.07;;;21.30;60.30;;;;;;5052331;28;20048;-73
2022/08/15 03:01:19;;;;;;;10.95;7.47;;;21.30;60.10;;;;;;5052178;28;20021;-73
2022/08/15 03:03:47;;;;;;;7.90;6.55;;;21.30;60.70;;;;;;5052248;28;20021;-75
2022/08/15 03:06:16;;;;;;;8.85;6.75;;;21.20;60.80;;;;;;5052134;28;20426;-74
2022/08/15 03:08:42;;;;;;;10.57;7.03;;;21.20;60.90;;;;;;5052159;28;20029;-73
2022/08/15 03:11:09;;;;;;;10.32;7.35;;;21.20;60.90;;;;;;5052133;28;20029;-75
2022/08/15 03:13:36;;;;;;;7.68;6.72;;;21.20;61.00;;;;;;5015873;28;20437;-70
2022/08/15 03:16:04;;;;;;;8.80;7.13;;;21.20;60.70;;;;;;5032171;28;20112;-71
2022/08/15 03:18:32;;;;;;;8.43;6.90;;;21.10;60.80;;;;;;5032003;28;20487;-74
2022/08/15 03:20:59;;;;;;;9.90;7.90;;;21.10;61.20;;;;;;5031893;28;20060;-76
2022/08/15 03:23:29;;;;;;;8.15;7.07;;;21.10;61.00;;;;;;5032056;28;20253;-73
2022/08/15 03:25:59;;;;;;;10.38;8.20;;;21.00;61.20;;;;;;5032000;28;20033;-74
2022/08/15 03:28:28;;;;;;;10.23;8.30;;;21.00;61.50;;;;;;5032107;28;20603;-73
2022/08/15 03:30:56;;;;;;;10.13;6.85;;;21.00;61.60;;;;;;5032370;28;20483;-75
2022/08/15 03:33:21;;;;;;;9.70;7.30;;;21.00;61.40;;;;;;5035794;28;20018;-74
2022/08/15 03:35:49;;;;;;;8.45;7.00;;;21.00;61.40;;;;;;5035694;28;20071;-72
2022/08/15 03:38:16;;;;;;;8.85;7.13;;;20.90;61.40;;;;;;5035558;28;20080;-71
2022/08/15 03:40:45;;;;;;;9.35;7.03;;;20.90;61.20;;;;;;5035542;28;20025;-75
2022/08/15 03:43:19;;;;;;;8.55;7.20;;;20.90;61.50;;;;;;5049916;28;20024;-71
2022/08/15 03:45:52;;;;;;;8.13;7.07;;;20.90;61.70;;;;;;5055400;28;20024;-71
2022/08/15 03:48:26;;;;;;;9.15;7.22;;;20.90;61.80;;;;;;5055380;28;20124;-69
2022/08/15 03:50:53;;;;;;;10.05;7.45;;;20.90;62.00;;;;;;5055372;28;20021;-71
2022/08/15 03:53:19;;;;;;;8.90;6.72;;;20.80;61.80;;;;;;5055276;28;20083;-74
2022/08/15 03:55:45;;;;;;;7.75;6.70;;;20.80;62.00;;;;;;5055232;28;20021;-72
2022/08/15 03:58:12;;;;;;;9.15;6.95;;;20.80;62.10;;;;;;5055232;28;20032;-70
2022/08/15 04:00:43;;;;;;;8.93;7.05;;;20.70;62.10;;;;;;5055129;28;20025;-75
2022/08/15 04:03:13;;;;;;;8.68;7.57;;;20.70;62.30;;;;;;5055202;28;20056;-74
2022/08/15 04:05:41;;;;;;;11.38;6.75;;;20.70;62.30;;;;;;5055054;28;20047;-73
2022/08/15 04:08:10;;;;;;;8.25;6.53;;;20.70;62.40;;;;;;5054978;28;20501;-74
2022/08/15 04:10:37;;;;;;;7.25;6.40;;;20.70;62.50;;;;;;5054935;28;20108;-69
2022/08/15 04:13:07;;;;;;;7.85;6.72;;;20.70;62.60;;;;;;5041205;28;20017;-75
2022/08/15 04:15:35;;;;;;;9.43;6.72;;;20.70;62.70;;;;;;5034999;28;20021;-73
2022/08/15 04:18:01;;;;;;;8.10;7.00;;;20.60;62.80;;;;;;5034790;28;20482;-71
2022/08/15 04:20:28;;;;;;;8.77;6.38;;;20.60;62.80;;;;;;5034655;28;20052;-72
2022/08/15 04:22:54;;;;;;;7.72;6.63;;;20.60;62.80;;;;;;5033511;28;20029;-73
2022/08/15 04:25:25;;;;;;;7.55;6.38;;;20.60;62.80;;;;;;5034833;28;20413;-72
2022/08/15 04:27:56;;;;;;;9.55;6.65;;;20.60;62.80;;;;;;5034673;28;20159;-73
2022/08/15 04:30:25;;;;;;;8.07;6.63;;;20.70;63.00;;;;;;5034835;28;20021;-71
2022/08/15 04:32:54;;;;;;;8.35;6.00;;;20.70;63.10;;;;;;5034660;28;20498;-73
2022/08/15 04:35:20;;;;;;;8.10;6.60;;;20.70;62.90;;;;;;5034631;28;20033;-69
2022/08/15 04:37:46;;;;;;;9.27;6.72;;;20.70;63.20;;;;;;5034468;28;20026;-72
2022/08/15 04:40:15;;;;;;;7.95;6.30;;;20.80;63.20;;;;;;5034469;28;20021;-74
2022/08/15 04:42:55;;;;;;;7.63;6.53;;;20.80;63.20;;;;;;5043681;28;20560;-72
2022/08/15 04:45:24;;;;;;;7.65;6.13;;;20.80;63.30;;;;;;5054150;28;20445;-75
2022/08/15 04:47:51;;;;;;;9.70;6.68;;;20.90;63.20;;;;;;5054235;28;20047;-73
2022/08/15 04:50:17;;;;;;;8.23;6.72;;;20.90;63.00;;;;;;5054208;28;20017;-74
2022/08/15 04:52:52;;;;;;;7.90;6.53;;;21.00;63.20;;;;;;5054183;28;20053;-75
2022/08/15 04:55:19;;;;;;;7.13;6.43;;;21.00;63.50;;;;;;5054134;28;20017;-72
2022/08/15 04:57:45;;;;;;;8.85;6.60;;;21.10;63.30;;;;;;5054040;28;20025;-76
2022/08/15 05:00:14;;;;;;;7.72;6.60;;;21.10;63.10;;;;;;5044121;28;20136;-74
2022/08/15 05:02:40;;;;;;;9.05;7.05;;;21.20;63.20;;;;;;5033202;28;20112;-72
2022/08/15 05:05:09;;;;;;;8.43;6.47;;;21.20;63.20;;;;;;5053900;28;20025;-74
2022/08/15 05:07:35;;;;;;;7.22;6.13;;;21.30;62.90;;;;;;5052742;28;20021;-72
2022/08/15 05:10:04;;;;;;;8.70;6.97;;;21.40;62.80;;;;;;5033516;28;20037;-71
2022/08/15 05:12:31;;;;;;;21.65;7.88;;;21.50;62.90;;;;;;5041311;28;20474;-70
2022/08/15 05:14:57;;;;;;;8.63;6.97;;;21.50;62.90;;;;;;5035529;28;20029;-74
2022/08/15 05:17:23;;;;;;;7.45;6.20;;;21.60;62.70;;;;;;5033341;28;20013;-72
2022/08/15 05:19:49;;;;;;;7.55;6.45;;;21.70;62.40;;;;;;5051476;28;20398;-72
2022/08/15 05:22:17;;;;;;;14.30;6.80;;;21.80;62.30;;;;;;5053383;28;20029;-75
2022/08/15 05:24:43;;;;;;;12.93;7.00;;;21.80;62.20;;;;;;5051557;28;20094;-75
2022/08/15 05:27:09;;;;;;;8.65;6.93;;;21.90;62.10;;;;;;5033271;28;20032;-72
2022/08/15 05:29:35;;;;;;;8.13;7.15;;;22.00;62.10;;;;;;5033158;28;20536;-73
2022/08/15 05:32:05;;;;;;;8.30;6.63;;;22.00;61.80;;;;;;5033265;28;20141;-76
2022/08/15 05:34:31;;;;;;;8.15;6.93;;;22.10;61.70;;;;;;5033324;28;20108;-69
2022/08/15 05:36:57;;;;;;;7.20;6.43;;;22.20;61.50;;;;;;5015258;28;20439;-74
2022/08/15 05:39:26;;;;;;;8.40;6.70;;;22.30;61.40;;;;;;5032947;28;20025;-73
2022/08/15 05:42:11;;;;;;;8.55;6.72;;;22.40;61.40;;;;;;5035518;28;20039;-76
2022/08/15 05:44:59;;;;;;;19.83;7.47;;;22.40;61.00;;;;;;5035050;28;20057;-74
2022/08/15 05:47:33;;;;;;;10.85;7.25;;;22.50;60.80;;;;;;5052768;28;20073;-74
2022/08/15 05:50:19;;;;;;;10.88;8.00;;;22.60;60.50;;;;;;5042835;28;20402;-75
2022/08/15 05:53:00;;;;;;;9.82;7.30;;;22.70;60.40;;;;;;5052678;28;20017;-76
2022/08/15 05:56:10;;;;;;;13.23;8.23;;;22.70;60.30;;;;;;5051971;28;20032;-74
2022/08/15 05:58:55;;;;;;;15.93;7.88;;;22.80;60.00;;;;;;5013549;28;20033;-72
2022/08/15 06:01:33;;;;;;;10.35;8.23;;;22.90;59.80;;;;;;5032410;28;20029;-71
2022/08/15 06:04:08;;;;;;;11.75;7.50;;;22.90;59.60;;;;;;5032271;28;20067;-74
2022/08/15 06:06:38;;;;;;;12.43;8.52;;;23.00;59.50;;;;;;5032673;28;20025;-71
2022/08/15 06:09:29;;;;;;;13.13;8.70;;;23.10;59.50;;;;;;5032724;28;20024;-72
2022/08/15 06:11:57;;;;;;;13.32;10.05;;;23.10;59.30;;;;;;5038160;28;20446;-75
2022/08/15 06:14:31;;;;;;;11.65;8.27;;;23.20;59.20;;;;;;5032565;28;20026;-69
2022/08/15 06:17:02;;;;;;;12.63;8.85;;;23.30;59.20;;;;;;5032659;28;20075;-70
2022/08/15 06:19:32;;;;;;;9.50;8.20;;;23.30;59.00;;;;;;5050253;28;20022;-70
2022/08/15 06:22:14;;;;;;;13.65;9.02;;;23.40;58.90;;;;;;5052304;28;20068;-73
2022/08/15 06:24:54;;;;;;;12.68;9.05;;;23.50;58.70;;;;;;5032488;28;20475;-74
2022/08/15 06:27:56;;;;;;;16.10;10.52;;;23.60;58.60;;;;;;5032157;28;20029;-74
2022/08/15 06:30:57;;;;;;;11.95;10.25;;;23.60;58.30;;;;;;5009866;28;20030;-74
2022/08/15 06:33:34;;;;;;;18.23;10.38;;;23.70;58.30;;;;;;5032142;28;20027;-71
2022/08/15 06:36:10;;;;;;;12.82;9.50;;;23.70;58.00;;;;;;5031889;28;20121;-73
2022/08/15 06:38:53;;;;;;;14.15;9.65;;;23.80;58.00;;;;;;5031314;28;20460;-73
2022/08/15 06:41:50;;;;;;;17.42;12.10;;;23.90;58.00;;;;;;5027088;28;20021;-73
2022/08/15 06:44:18;;;;;;;13.70;10.90;;;23.90;57.90;;;;;;5025604;28;20080;-74
2022/08/15 06:46:45;;;;;;;14.55;11.68;;;24.00;57.80;;;;;;5031241;28;20048;-73
2022/08/15 06:49:13;;;;;;;19.30;12.35;;;24.10;57.60;;;;;;5032402;28;20096;-74
2022/08/15 06:51:41;;;;;;;15.98;11.73;;;24.10;57.40;;;;;;5032326;28;20022;-74
2022/08/15 06:54:14;;;;;;;13.43;10.57;;;24.20;57.40;;;;;;5014641;28;20022;-74
2022/08/15 06:56:52;;;;;;;13.05;9.40;;;24.20;57.40;;;;;;5031043;28;20111;-74
2022/08/15 06:59:40;;;;;;;14.93;9.23;;;24.30;57.40;;;;;;5030939;28;20021;-73
2022/08/15 07:02:33;;;;;;;19.50;9.68;;;24.40;57.30;;;;;;5014186;28;20034;-74
2022/08/15 07:05:20;;;;;;;19.13;9.95;;;24.40;57.20;;;;;;5032661;28;20025;-73
2022/08/15 07:08:07;;;;;;;12.73;10.85;;;24.50;57.00;;;;;;5035947;28;20033;-73
2022/08/15 07:11:08;;;;;;;15.82;11.23;;;24.50;56.80;;;;;;5036141;28;20018;-73
2022/08/15 07:13:53;;;;;;;13.18;10.23;;;24.60;56.50;;;;;;4966386;28;20035;-73
2022/08/15 07:16:27;;;;;;;14.52;10.82;;;24.70;56.50;;;;;;4975095;28;20528;-73
2022/08/15 07:18:59;;;;;;;9.32;7.95;;;24.70;56.40;;;;;;4975006;28;20043;-73
2022/08/15 07:21:25;;;;;;;12.38;9.00;;;24.80;56.30;;;;;;4974628;28;20050;-74
2022/08/15 07:24:21;;;;;;;10.00;8.35;;;24.80;56.70;;;;;;4974923;28;20531;-74
2022/08/15 07:26:52;;;;;;;11.38;9.90;;;24.90;56.10;;;;;;4974776;28;20031;-74
2022/08/15 07:29:27;;;;;;;21.23;10.13;;;25.00;55.80;;;;;;4974718;28;20033;-75
2022/08/15 07:32:07;;;;;;;12.40;9.68;;;25.00;55.50;;;;;;4958437;28;20085;-74
2022/08/15 07:34:35;;;;;;;26.63;10.80;;;25.00;55.80;;;;;;4974721;28;20019;-74
2022/08/15 07:37:04;;;;;;;23.98;9.50;;;25.10;55.10;;;;;;4974638;28;20444;-73
2022/08/15 07:39:37;;;;;;;16.33;8.75;;;25.20;55.20;;;;;;4958286;28;20042;-75
2022/08/15 07:42:19;;;;;;;12.07;9.57;;;25.30;55.10;;;;;;4969216;28;20085;-74
2022/08/15 07:44:53;;;;;;;10.07;8.95;;;25.40;55.00;;;;;;4955151;29;20492;-73
2022/08/15 07:47:25;;;;;;;15.75;9.38;;;25.40;54.60;;;;;;4955058;29;20037;-74
2022/08/15 07:50:29;;;;;;;10.60;8.75;;;25.50;54.20;;;;;;4963738;28;20491;-74
2022/08/15 07:52:59;;;;;;;10.55;8.95;;;25.60;54.60;;;;;;4957922;28;20027;-74
2022/08/15 07:55:25;;;;;;;9.68;8.32;;;25.60;53.90;;;;;;4974093;28;20583;-74
2022/08/15 07:58:13;;;;;;;14.00;9.95;;;25.70;53.80;;;;;;4974269;28;20109;-73
2022/08/15 08:00:40;;;;;;;13.32;9.20;;;25.70;53.50;;;;;;4974261;28;20029;-72
2022/08/15 08:03:11;;;;;;;11.63;9.45;;;25.80;53.50;;;;;;4974075;28;20058;-75
2022/08/15 08:05:56;;;;;;;11.60;7.82;;;25.80;53.50;;;;;;4974101;28;20485;-74
2022/08/15 08:08:31;;;;;;;10.13;8.50;;;25.90;53.50;;;;;;4974128;28;20035;-74
2022/08/15 08:11:23;;;;;;;9.70;8.05;;;26.00;53.00;;;;;;4975566;28;20392;-75
2022/08/15 08:14:22;;;;;;;11.27;8.32;;;26.10;53.20;;;;;;4955022;28;20038;-73
2022/08/15 08:17:08;;;;;;;8.43;7.30;;;26.10;53.00;;;;;;4953962;28;20106;-74
2022/08/15 08:19:50;;;;;;;9.52;7.70;;;26.20;53.30;;;;;;4954634;29;20032;-73
2022/08/15 08:22:27;;;;;;;10.27;8.00;;;26.30;52.60;;;;;;4954720;29;20047;-73
2022/08/15 08:25:08;;;;;;;11.43;7.15;;;26.40;52.10;;;;;;4954636;29;20489;-74
2022/08/15 08:28:09;;;;;;;11.57;8.13;;;26.50;52.20;;;;;;4963683;28;20113;-75
2022/08/15 08:31:03;;;;;;;14.63;8.63;;;26.60;51.40;;;;;;4978474;28;20035;-74
2022/08/15 08:33:52;;;;;;;12.65;8.13;;;26.60;51.00;;;;;;5013583;28;20025;-73
2022/08/15 08:36:27;;;;;;;17.25;7.60;;;26.70;50.60;;;;;;5014983;28;20026;-74
2022/08/15 08:39:27;;;;;;;12.57;8.20;;;26.80;50.40;;;;;;5014850;28;20028;-74
2022/08/15 08:42:18;;;;;;;8.82;7.20;;;26.90;50.50;;;;;;5021164;28;20021;-74
2022/08/15 08:45:02;;;;;;;17.58;8.27;;;27.00;50.20;;;;;;5054513;28;20055;-73
2022/08/15 08:47:39;;;;;;;9.20;7.97;;;27.10;49.80;;;;;;5054403;28;20036;-74
2022/08/15 08:50:22;;;;;;;9.25;7.03;;;27.30;50.00;;;;;;5054693;28;20013;-75
2022/08/15 08:53:02;;;;;;;7.32;6.60;;;27.50;49.90;;;;;;5054583;28;20021;-74
2022/08/15 08:55:52;;;;;;;13.18;7.90;;;27.60;49.90;;;;;;5054294;28;20086;-73
2022/08/15 08:58:31;;;;;;;13.70;8.63;;;27.80;49.50;;;;;;5045204;28;20386;-74
2022/08/15 09:00:59;;;;;;;11.07;7.10;;;28.00;48.20;;;;;;5050817;28;20092;-74
2022/08/15 09:03:37;;;;;;;11.80;8.27;;;28.20;48.10;;;;;;5034251;28;20029;-74
2022/08/15 09:06:03;;;;;;;10.18;6.82;;;28.40;47.60;;;;;;5016346;28;20415;-76
2022/08/15 09:08:51;;;;;;;16.55;8.10;;;28.60;47.70;;;;;;5034058;28;20030;-74
2022/08/15 09:11:44;;;;;;;13.00;7.53;;;28.70;47.00;;;;;;5033902;28;20022;-74
2022/08/15 09:14:21;;;;;;;11.60;7.68;;;28.90;47.10;;;;;;5019799;28;20025;-75
2022/08/15 09:16:51;;;;;;;11.60;6.97;;;29.10;45.60;;;;;;5033953;28;20072;-75
2022/08/15 09:19:34;;;;;;;9.27;7.30;;;29.20;45.60;;;;;;5033918;28;20414;-74
2022/08/15 09:22:00;;;;;;;8.98;7.03;;;29.30;45.10;;;;;;5033597;28;20060;-73
2022/08/15 09:24:25;;;;;;;10.70;7.90;;;29.50;45.10;;;;;;5033785;28;20450;-74
2022/08/15 09:27:25;;;;;;;8.30;7.13;;;29.70;45.00;;;;;;5015858;28;20048;-74
2022/08/15 09:29:57;;;;;;;7.47;6.68;;;29.90;45.40;;;;;;5013437;28;20509;-75
2022/08/15 09:32:29;;;;;;;16.08;6.28;;;30.10;43.30;;;;;;5033999;28;20067;-74
2022/08/15 09:35:22;;;;;;;9.45;7.25;;;30.30;43.60;;;;;;5032333;28;20105;-74
2022/08/15 09:38:09;;;;;;;13.30;7.80;;;30.50;42.50;;;;;;5033588;28;20025;-73
2022/08/15 09:41:23;;;;;;;9.77;6.38;;;30.60;42.00;;;;;;5033512;28;20386;-74
2022/08/15 09:44:23;;;;;;;8.35;6.35;;;30.70;42.60;;;;;;4991572;28;20042;-73
2022/08/15 09:47:08;;;;;;;12.82;5.50;;;30.70;41.40;;;;;;4991815;28;20205;-73
2022/08/15 09:49:47;;;;;;;5.28;4.60;;;30.80;39.40;;;;;;4991790;28;20023;-74
2022/08/15 09:52:36;;;;;;;6.50;4.68;;;30.80;39.40;;;;;;4991632;28;20022;-75
2022/08/15 09:55:24;;;;;;;9.32;5.22;;;30.80;38.50;;;;;;4991758;28;20395;-74
2022/08/15 09:57:53;;;;;;;8.23;4.28;;;30.70;37.90;;;;;;4991770;28;20085;-74
2022/08/15 10:00:29;;;;;;;7.68;4.78;;;30.70;36.70;;;;;;4991590;28;20046;-75
2022/08/15 10:03:05;;;;;;;6.85;4.93;;;30.60;36.50;;;;;;4991493;28;20031;-75
2022/08/15 10:05:47;;;;;;;5.53;4.28;;;30.50;36.90;;;;;;4991737;28;20101;-74
2022/08/15 10:08:15;;;;;;;8.75;4.85;;;30.40;37.90;;;;;;4991153;28;20210;-74
2022/08/15 10:10:53;;;;;;;6.03;4.00;;;30.40;37.60;;;;;;4991574;28;20027;-75
2022/08/15 10:13:25;;;;;;;11.23;5.22;;;30.40;38.30;;;;;;4991108;28;20466;-74
2022/08/15 10:15:51;;;;;;;10.82;5.35;;;30.40;37.60;;;;;;4991457;28;20091;-73
2022/08/15 10:18:23;;;;;;;27.25;4.25;;;30.40;37.50;;;;;;4991398;28;20109;-75
2022/08/15 10:21:30;;;;;;;9.73;4.80;;;30.30;37.50;;;;;;5021713;28;20045;-74
2022/08/15 10:23:56;;;;;;;9.18;4.60;;;30.30;37.90;;;;;;5032813;28;20022;-74
2022/08/15 10:26:31;;;;;;;8.23;4.60;;;30.30;37.20;;;;;;5031066;28;20552;-74
2022/08/15 10:29:08;;;;;;;13.07;5.15;;;30.40;36.50;;;;;;5032736;28;20472;-74
2022/08/15 10:31:42;;;;;;;11.05;4.43;;;30.30;37.30;;;;;;5032739;28;20017;-74
2022/08/15 10:34:18;;;;;;;14.40;4.72;;;30.30;37.00;;;;;;5032774;28;20063;-74
2022/08/15 10:37:15;;;;;;;6.47;4.32;;;30.30;36.20;;;;;;5032730;28;20021;-74
2022/08/15 10:40:06;;;;;;;9.40;4.97;;;30.40;37.10;;;;;;5031015;28;20497;-74
2022/08/15 10:42:51;;;;;;;7.97;4.60;;;30.40;37.20;;;;;;5039700;28;20410;-75
2022/08/15 10:45:27;;;;;;;7.07;4.63;;;30.40;37.60;;;;;;5052443;28;20031;-74
2022/08/15 10:47:54;;;;;;;7.18;4.57;;;30.30;37.40;;;;;;5052498;28;20053;-75
2022/08/15 10:50:32;;;;;;;7.30;4.38;;;30.30;37.20;;;;;;5052443;28;20104;-73
2022/08/15 10:53:15;;;;;;;5.18;4.53;;;30.30;37.30;;;;;;5034598;28;20025;-75
2022/08/15 10:55:41;;;;;;;10.20;5.03;;;30.30;37.30;;;;;;5034601;28;20024;-75
2022/08/15 10:58:32;;;;;;;6.18;4.97;;;30.30;37.40;;;;;;5052390;28;20025;-75
2022/08/15 11:01:13;;;;;;;7.63;4.93;;;30.30;37.70;;;;;;5049599;28;20096;-74
2022/08/15 11:04:07;;;;;;;11.60;4.63;;;30.40;37.50;;;;;;5032521;28;20022;-74
2022/08/15 11:06:40;;;;;;;6.78;4.50;;;30.50;38.00;;;;;;5030743;28;20073;-73
2022/08/15 11:09:14;;;;;;;8.60;4.40;;;30.60;37.60;;;;;;5032370;28;20025;-73
2022/08/15 11:12:05;;;;;;;7.68;4.90;;;30.70;37.30;;;;;;5030865;28;20028;-75
2022/08/15 11:14:38;;;;;;;6.97;5.20;;;30.90;37.30;;;;;;5023097;28;20340;-73
2022/08/15 11:17:12;;;;;;;7.22;5.07;;;31.10;37.00;;;;;;5032269;28;20022;-73
2022/08/15 11:19:42;;;;;;;7.68;4.63;;;31.20;36.70;;;;;;5032228;28;20097;-73
2022/08/15 11:22:17;;;;;;;10.32;4.43;;;31.30;36.70;;;;;;5032085;28;20490;-74
2022/08/15 11:24:54;;;;;;;7.15;4.97;;;31.40;36.80;;;;;;5014522;28;20036;-73
2022/08/15 11:27:24;;;;;;;7.03;5.22;;;31.50;35.80;;;;;;5032180;28;20722;-73
2022/08/15 11:29:52;;;;;;;12.70;4.97;;;31.60;35.80;;;;;;5032783;28;20017;-74
2022/08/15 11:32:36;;;;;;;5.20;4.70;;;31.60;35.50;;;;;;5032130;28;20022;-74
2022/08/15 11:35:04;;;;;;;;;;;31.50;35.70;;;;;;5032539;28;20026;-73
2022/08/15 11:37:38;;;;;;;7.93;4.40;;;31.60;36.70;;;;;;5031919;28;19905;-73
2022/08/15 11:40:21;;;;;;;5.85;4.10;;;31.60;35.20;;;;;;5030739;28;20056;-75
2022/08/15 11:42:48;;;;;;;5.53;4.38;;;31.60;34.70;;;;;;5040319;28;20024;-75
2022/08/15 11:45:26;;;;;;;11.40;4.63;;;31.60;34.40;;;;;;5051916;28;20040;-75
2022/08/15 11:47:55;;;;;;;8.10;4.40;;;31.50;34.50;;;;;;5051860;28;20075;-74
2022/08/15 11:50:26;;;;;;;5.75;4.32;;;31.50;34.60;;;;;;5051954;28;20029;-74
2022/08/15 11:52:55;;;;;;;9.02;4.72;;;31.40;34.60;;;;;;5035779;28;20044;-74
2022/08/15 11:55:41;;;;;;;9.85;5.15;;;31.40;34.90;;;;;;5055416;28;20025;-74
2022/08/15 11:58:12;;;;;;;4.45;3.70;;;31.40;34.90;;;;;;5055421;28;20025;-74
2022/08/15 12:00:53;;;;;;;7.25;4.35;;;31.40;35.40;;;;;;5055181;28;20028;-74
2022/08/15 12:03:35;;;;;;;9.90;4.05;;;31.40;35.40;;;;;;5055346;28;20024;-73
2022/08/15 12:06:13;;;;;;;8.23;4.47;;;31.40;34.90;;;;;;5047514;28;20115;-74
2022/08/15 12:08:41;;;;;;;6.53;4.20;;;31.50;35.00;;;;;;5035253;28;20029;-74
2022/08/15 12:11:17;;;;;;;5.85;4.50;;;31.50;34.90;;;;;;5035260;28;20360;-73
2022/08/15 12:14:00;;;;;;;7.93;4.30;;;31.60;34.70;;;;;;5051123;28;20513;-74
2022/08/15 12:16:48;;;;;;;11.98;4.25;;;31.60;34.90;;;;;;5037154;28;20554;-74
2022/08/15 12:19:35;;;;;;;7.18;4.15;;;31.60;34.60;;;;;;5054306;28;20296;-75
2022/08/15 12:22:06;;;;;;;4.25;3.45;;;31.60;34.90;;;;;;5054720;28;20080;-75
2022/08/15 12:24:34;;;;;;;9.45;4.05;;;31.60;34.80;;;;;;5054929;28;20033;-75
2022/08/15 12:27:01;;;;;;;5.53;3.88;;;31.60;34.10;;;;;;5036888;28;20103;-74
2022/08/15 12:29:29;;;;;;;5.25;3.60;;;31.50;33.50;;;;;;5054768;28;20570;-75
2022/08/15 12:31:58;;;;;;;6.63;4.25;;;31.40;33.20;;;;;;5054748;28;20045;-76
2022/08/15 12:34:33;;;;;;;14.35;4.07;;;31.40;32.90;;;;;;5054711;28;20028;-75
2022/08/15 12:37:01;;;;;;;11.30;3.58;;;31.40;33.50;;;;;;5054659;28;20013;-76
2022/08/15 12:39:27;;;;;;;7.13;3.20;;;31.40;33.20;;;;;;5055131;28;20025;-75
2022/08/15 12:41:54;;;;;;;9.30;4.13;;;31.30;32.70;;;;;;5053490;28;20095;-75
2022/08/15 12:44:26;;;;;;;12.43;3.55;;;31.30;33.00;;;;;;5054134;28;20021;-74
2022/08/15 12:46:53;;;;;;;4.53;3.35;;;31.30;33.50;;;;;;5054439;28;20500;-73
2022/08/15 12:49:19;;;;;;;7.13;3.47;;;31.30;33.20;;;;;;5054474;28;20028;-74
2022/08/15 12:51:45;;;;;;;4.93;3.65;;;31.30;32.60;;;;;;5054470;28;20417;-73
2022/08/15 12:54:11;;;;;;;3.40;3.10;;;31.30;32.70;;;;;;5054305;28;20021;-75
2022/08/15 12:56:37;;;;;;;6.43;4.03;;;31.30;33.50;;;;;;5054318;28;20088;-74
2022/08/15 12:59:05;;;;;;;7.15;3.67;;;31.40;33.20;;;;;;5054265;28;20028;-75
2022/08/15 13:01:35;;;;;;;15.80;4.13;;;31.40;33.40;;;;;;5046052;28;20057;-74
2022/08/15 13:04:04;;;;;;;7.90;3.90;;;31.50;33.30;;;;;;5033818;28;20026;-75
2022/08/15 13:06:52;;;;;;;5.35;3.90;;;31.50;33.50;;;;;;5034068;28;20027;-75
2022/08/15 13:09:21;;;;;;;3.90;3.38;;;31.60;33.70;;;;;;5034175;28;20026;-74
2022/08/15 13:11:47;;;;;;;8.38;3.95;;;31.60;33.20;;;;;;5034024;28;20105;-73
2022/08/15 13:14:18;;;;;;;9.15;3.60;;;31.60;32.70;;;;;;5033872;28;20041;-75
2022/08/15 13:16:46;;;;;;;5.72;3.30;;;31.70;33.30;;;;;;5034048;28;20408;-75
2022/08/15 13:19:16;;;;;;;5.68;3.90;;;31.70;33.20;;;;;;5032633;28;20475;-75
2022/08/15 13:24:26;;;;;;;5.43;3.28;;;31.80;32.90;;;;;;5033825;28;20060;-76